Time;durP1;ratioP1;P1;durP2;ratioP2;P2;SDS_P1;SDS_P2;PMS_P1;PMS_P2;Temp;Humidity;BMP_temperature;BMP_pressure;BME280_temperature;BME280_humidity;BME280_pressure;Samples;Min_cycle;Max_cycle;Signal;HPM_P1;HPM_P2
2023/02/15 00:01:45;;;;;;;17.13;7.10;;;;;;;3.26;70.74;101543.91;123286;1102;104309;-79
2023/02/15 00:04:18;;;;;;;15.30;6.60;;;;;;;3.23;70.74;101543.66;123381;1100;104254;-80
2023/02/15 00:06:49;;;;;;;17.10;7.27;;;;;;;3.20;71.21;101541.70;123288;1099;104364;-79
2023/02/15 00:09:21;;;;;;;17.83;7.20;;;;;;;3.17;70.96;101549.23;123293;1099;104623;-79
2023/02/15 00:11:52;;;;;;;16.93;7.20;;;;;;;3.14;70.71;101546.39;123290;1099;104293;-78
2023/02/15 00:14:25;;;;;;;18.43;6.97;;;;;;;3.09;71.70;101552.89;123332;1099;104293;-78
2023/02/15 00:16:59;;;;;;;14.17;6.50;;;;;;;3.05;71.47;101554.34;123313;1099;104348;-79
2023/02/15 00:19:30;;;;;;;15.50;6.40;;;;;;;3.02;71.29;101545.37;123310;1102;104361;-79
2023/02/15 00:22:02;;;;;;;19.13;7.73;;;;;;;2.98;71.76;101548.52;123318;1102;104312;-78
2023/02/15 00:24:33;;;;;;;18.17;6.87;;;;;;;2.93;71.35;101555.91;123343;1102;104351;-78
2023/02/15 00:27:05;;;;;;;18.65;7.10;;;;;;;2.88;72.08;101550.34;123348;1099;104254;-78
2023/02/15 00:29:36;;;;;;;17.80;7.10;;;;;;;2.83;72.43;101555.91;123258;1099;104275;-79
2023/02/15 00:32:07;;;;;;;19.60;7.77;;;;;;;2.78;71.98;101554.63;123322;1099;104294;-78
2023/02/15 00:34:39;;;;;;;18.20;7.50;;;;;;;2.74;71.65;101555.14;123306;1102;104321;-79
2023/02/15 00:37:10;;;;;;;16.83;7.60;;;;;;;2.68;71.91;101559.04;123350;1102;104639;-78
2023/02/15 00:39:41;;;;;;;19.57;7.90;;;;;;;2.62;72.19;101558.52;123284;1100;104286;-77
2023/02/15 00:42:12;;;;;;;19.57;7.23;;;;;;;2.59;71.93;101567.73;123349;1102;104252;-79
2023/02/15 00:44:44;;;;;;;20.50;8.03;;;;;;;2.54;71.90;101561.23;123296;1102;103485;-78
2023/02/15 00:47:15;;;;;;;21.87;8.00;;;;;;;2.49;72.34;101566.02;123229;1102;104293;-78
2023/02/15 00:49:46;;;;;;;20.10;7.90;;;;;;;2.43;72.02;101560.31;123162;1102;104274;-79
2023/02/15 00:52:17;;;;;;;18.67;7.87;;;;;;;2.39;71.73;101558.27;123345;1101;104341;-78
2023/02/15 00:54:49;;;;;;;20.07;8.20;;;;;;;2.34;72.63;101563.05;123380;1099;104284;-78
2023/02/15 00:57:20;;;;;;;18.70;7.65;;;;;;;2.28;71.64;101566.01;123303;1102;104379;-77
2023/02/15 00:59:51;;;;;;;21.47;8.47;;;;;;;2.23;73.43;101566.38;123402;1098;104332;-79
2023/02/15 01:02:22;;;;;;;19.63;8.07;;;;;;;2.15;72.34;101563.13;123516;1099;104351;-79
2023/02/15 01:04:54;;;;;;;20.67;8.70;;;;;;;2.09;72.35;101572.98;123408;1099;104278;-79
2023/02/15 01:07:27;;;;;;;21.87;8.93;;;;;;;2.02;72.67;101573.21;123447;1099;104304;-78
2023/02/15 01:09:58;;;;;;;18.83;8.03;;;;;;;1.96;72.74;101576.16;123313;1099;104219;-79
2023/02/15 01:12:29;;;;;;;21.33;8.00;;;;;;;1.91;73.37;101574.86;123264;1101;104361;-79
2023/02/15 01:15:01;;;;;;;20.57;9.00;;;;;;;1.88;72.80;101574.59;123169;1099;104331;-78
2023/02/15 01:17:33;;;;;;;21.77;8.90;;;;;;;1.87;72.93;101577.94;123301;1099;104252;-80
2023/02/15 01:20:05;;;;;;;19.97;8.60;;;;;;;1.78;73.36;101578.96;123337;1099;104325;-80
2023/02/15 01:22:36;;;;;;;17.30;8.10;;;;;;;1.71;73.36;101578.28;123392;1099;104370;-79
2023/02/15 01:25:08;;;;;;;19.10;8.33;;;;;;;1.64;73.28;101579.42;123184;1102;104679;-78
2023/02/15 01:27:40;;;;;;;19.47;8.17;;;;;;;1.60;73.40;101585.09;123264;1102;104281;-78
2023/02/15 01:30:13;;;;;;;20.80;8.05;;;;;;;1.57;72.98;101587.41;123246;1102;104690;-79
2023/02/15 01:32:44;;;;;;;18.50;7.80;;;;;;;1.54;74.09;101584.55;123237;1102;104275;-79
2023/02/15 01:35:16;;;;;;;20.30;8.93;;;;;;;1.50;74.00;101585.06;123274;1102;104249;-79
2023/02/15 01:37:47;;;;;;;21.73;8.30;;;;;;;1.47;73.65;101579.62;123104;1102;104258;-77
2023/02/15 01:40:20;;;;;;;18.70;7.90;;;;;;;1.46;73.67;101590.72;123240;1099;104383;-81
2023/02/15 01:42:55;;;;;;;21.43;8.47;;;;;;;1.42;74.45;101585.27;123350;1099;104386;-79
2023/02/15 01:45:29;;;;;;;19.90;8.80;;;;;;;1.40;74.14;101579.06;123325;1100;104271;-79
2023/02/15 01:48:04;;;;;;;21.17;8.40;;;;;;;1.39;74.29;101589.27;123253;1099;104280;-79
2023/02/15 01:50:39;;;;;;;21.90;9.60;;;;;;;1.38;74.93;101590.03;123288;1099;104297;-78
2023/02/15 01:53:16;;;;;;;21.00;9.20;;;;;;;1.35;74.56;101589.75;123393;1099;104327;-78
2023/02/15 01:55:51;;;;;;;21.20;8.70;;;;;;;1.34;75.21;101591.45;123316;1102;104245;-80
2023/02/15 01:58:25;;;;;;;20.53;8.43;;;;;;;1.33;74.40;101596.48;123232;1099;104427;-79
2023/02/15 02:00:59;;;;;;;20.07;8.23;;;;;;;1.32;74.70;101592.96;123247;1100;104353;-78
2023/02/15 02:03:40;;;;;;;24.50;9.70;;;;;;;1.31;74.54;101591.17;123216;1102;104393;-78
2023/02/15 02:06:15;;;;;;;23.50;9.00;;;;;;;1.30;75.40;101597.09;123361;1100;104233;-79
2023/02/15 02:08:49;;;;;;;19.57;9.27;;;;;;;1.27;75.21;101589.06;123667;1099;104392;-79
2023/02/15 02:11:21;;;;;;;21.33;8.83;;;;;;;1.25;75.00;101582.86;123632;1099;104246;-79
2023/02/15 02:13:54;;;;;;;21.40;8.77;;;;;;;1.25;75.12;101591.51;123663;1098;104229;-80
2023/02/15 02:16:33;;;;;;;19.20;9.10;;;;;;;1.23;75.43;101593.06;123629;1098;104251;-80
2023/02/15 02:19:41;;;;;;;19.23;8.57;;;;;;;1.25;75.42;101588.03;123622;1099;104392;-79
2023/02/15 02:22:51;;;;;;;21.97;8.77;;;;;;;1.24;74.91;101588.78;123425;1099;104325;-78
2023/02/15 02:25:49;;;;;;;21.23;8.77;;;;;;;1.27;74.99;101596.82;123664;1099;104229;-80
2023/02/15 02:28:46;;;;;;;23.70;9.70;;;;;;;1.27;75.47;101601.99;123469;1099;104358;-79
2023/02/15 02:31:51;;;;;;;21.17;8.53;;;;;;;1.27;75.26;101599.41;123387;1099;104651;-80
2023/02/15 02:34:27;;;;;;;19.98;9.38;;;;;;;1.28;75.97;101603.82;123355;1099;104382;-79
2023/02/15 02:37:13;;;;;;;20.03;9.17;;;;;;;1.28;75.27;101603.82;123630;1099;104355;-79
2023/02/15 02:39:50;;;;;;;22.63;8.77;;;;;;;1.29;76.11;101602.13;123624;1099;104644;-80
2023/02/15 02:42:29;;;;;;;18.63;8.97;;;;;;;1.27;76.03;101604.58;123703;1099;104306;-79
2023/02/15 02:45:06;;;;;;;21.73;9.30;;;;;;;1.26;76.31;101597.58;123260;1099;104297;-79
2023/02/15 02:47:41;;;;;;;21.87;8.93;;;;;;;1.26;76.18;101605.34;123322;1099;104325;-79
2023/02/15 02:50:16;;;;;;;23.50;8.80;;;;;;;1.24;76.60;101609.47;123570;1099;104351;-81
2023/02/15 02:52:49;;;;;;;21.90;9.47;;;;;;;1.24;76.43;101604.30;123681;1099;104229;-80
2023/02/15 02:55:26;;;;;;;18.10;8.10;;;;;;;1.21;75.88;101609.19;123559;1099;104399;-80
2023/02/15 02:58:03;;;;;;;19.03;8.40;;;;;;;1.22;76.06;101609.33;123822;1099;104310;-79
2023/02/15 03:00:39;;;;;;;22.15;8.70;;;;;;;1.20;76.09;101612.53;124167;1099;104320;-77
2023/02/15 03:03:15;;;;;;;23.37;9.00;;;;;;;1.16;76.52;101605.30;123771;1099;104293;-78
2023/02/15 03:05:51;;;;;;;23.80;9.15;;;;;;;1.12;76.84;101617.01;123963;1099;104354;-79
2023/02/15 03:08:28;;;;;;;22.17;9.30;;;;;;;1.10;76.56;101625.41;123598;1099;104730;-78
2023/02/15 03:11:02;;;;;;;22.23;9.40;;;;;;;1.05;76.65;101620.72;123717;1099;107040;-79
2023/02/15 03:13:35;;;;;;;21.67;9.00;;;;;;;1.01;76.72;101621.23;123725;1099;104277;-79
2023/02/15 03:16:28;;;;;;;22.07;9.63;;;;;;;0.98;76.70;101620.02;123629;1099;104238;-79
2023/02/15 03:19:06;;;;;;;20.80;8.57;;;;;;;0.93;76.36;101622.17;123389;1099;104303;-79
2023/02/15 03:21:42;;;;;;;21.83;9.20;;;;;;;0.88;76.74;101624.33;123507;1099;104392;-80
2023/02/15 03:24:17;;;;;;;21.25;9.20;;;;;;;0.88;76.50;101626.02;123483;1099;104383;-78
2023/02/15 03:26:52;;;;;;;21.43;9.00;;;;;;;0.81;76.71;101618.45;123767;1098;104285;-79
2023/02/15 03:29:26;;;;;;;22.40;8.90;;;;;;;0.78;76.99;101631.09;123427;1099;104425;-79
2023/02/15 03:32:01;;;;;;;20.90;9.30;;;;;;;0.75;76.97;101626.56;123414;1099;104313;-78
2023/02/15 03:34:33;;;;;;;24.10;9.73;;;;;;;0.70;76.72;101626.14;123648;1099;104357;-81
2023/02/15 03:37:12;;;;;;;22.37;8.33;;;;;;;0.66;77.12;101636.94;123626;1099;104270;-79
2023/02/15 03:39:51;;;;;;;23.83;9.90;;;;;;;0.64;76.63;101633.31;123687;1099;104248;-78
2023/02/15 03:42:27;;;;;;;21.77;8.87;;;;;;;0.61;77.16;101634.68;123664;1099;104374;-80
2023/02/15 03:45:03;;;;;;;23.73;9.63;;;;;;;0.59;77.08;101633.64;123594;1099;104419;-79
2023/02/15 03:47:38;;;;;;;23.63;9.70;;;;;;;0.56;77.24;101631.67;123667;1099;104294;-77
2023/02/15 03:53:01;;;;;;;25.50;9.30;;;;;;;0.49;77.12;101631.88;123640;1099;104303;-80
2023/02/15 03:55:34;;;;;;;21.70;9.30;;;;;;;0.48;77.23;101640.37;123582;1099;104252;-80
2023/02/15 04:04:07;;;;;;;24.75;10.35;;;;;;;0.39;76.98;101643.02;123285;1102;104339;-78
2023/02/15 04:06:38;;;;;;;21.70;9.20;;;;;;;0.38;77.37;101648.05;123472;1099;104364;-80
2023/02/15 04:11:57;;;;;;;23.17;10.20;;;;;;;0.34;77.79;101641.66;123897;1099;104302;-79
2023/02/15 04:17:18;;;;;;;25.50;10.17;;;;;;;0.31;78.08;101655.20;123811;1099;104245;-78
2023/02/15 04:25:27;;;;;;;27.80;11.80;;;;;;;0.25;77.95;101656.27;123276;1099;104395;-78
2023/02/15 04:27:58;;;;;;;24.97;11.17;;;;;;;0.24;78.03;101649.31;123648;1099;104424;-77
2023/02/15 04:30:29;;;;;;;24.67;11.47;;;;;;;0.24;77.97;101657.95;123523;1099;104280;-78
2023/02/15 04:33:01;;;;;;;23.80;11.10;;;;;;;0.22;78.03;101659.48;123611;1098;104379;-79
2023/02/15 04:35:33;;;;;;;25.83;10.80;;;;;;;0.23;78.38;101658.70;123699;1099;104270;-78
2023/02/15 04:38:04;;;;;;;23.20;10.83;;;;;;;0.21;78.29;101657.66;123818;1099;104271;-77
2023/02/15 04:40:35;;;;;;;22.17;9.50;;;;;;;0.20;78.39;101658.41;123704;1099;104309;-78
2023/02/15 04:43:07;;;;;;;26.10;9.73;;;;;;;0.18;78.28;101649.63;123327;1099;106992;-79
2023/02/15 04:45:38;;;;;;;25.97;10.83;;;;;;;0.18;78.43;101659.95;123536;1099;104734;-78
2023/02/15 04:48:09;;;;;;;24.60;10.35;;;;;;;0.17;78.49;101665.86;123523;1099;104441;-78
2023/02/15 04:50:40;;;;;;;23.03;9.60;;;;;;;0.16;78.28;101657.22;123713;1099;104361;-79
2023/02/15 04:53:12;;;;;;;25.70;9.87;;;;;;;0.16;79.13;101662.38;123826;1099;118613;-80
2023/02/15 04:55:43;;;;;;;25.17;10.50;;;;;;;0.18;78.44;101667.69;123616;1099;104252;-78
2023/02/15 04:58:15;;;;;;;24.90;10.10;;;;;;;0.17;78.13;101666.80;123883;1099;104338;-79
2023/02/15 05:00:46;;;;;;;24.40;10.57;;;;;;;0.17;79.28;101671.02;123868;1099;104274;-80
2023/02/15 05:03:17;;;;;;;20.15;9.40;;;;;;;0.17;78.65;101671.95;123846;1099;104395;-80
2023/02/15 05:05:48;;;;;;;24.60;10.25;;;;;;;0.15;79.10;101669.98;123845;1099;104275;-79
2023/02/15 05:08:19;;;;;;;25.07;10.00;;;;;;;0.15;79.17;101676.04;123779;1099;104245;-80
2023/02/15 05:10:51;;;;;;;20.63;9.63;;;;;;;0.13;78.42;101674.09;123817;1099;104316;-80
2023/02/15 05:13:23;;;;;;;21.43;10.03;;;;;;;0.13;79.79;101681.84;123790;1099;104274;-79
2023/02/15 05:15:55;;;;;;;26.70;9.90;;;;;;;0.12;78.90;101685.17;123935;1099;104219;-79
2023/02/15 05:18:26;;;;;;;22.17;9.53;;;;;;;0.14;79.69;101688.80;124271;1099;104175;-84
2023/02/15 05:20:57;;;;;;;25.30;10.70;;;;;;;0.14;80.25;101688.80;124380;1099;104314;-81
2023/02/15 05:23:28;;;;;;;27.37;10.60;;;;;;;0.14;79.61;101692.31;124389;1099;104705;-80
2023/02/15 05:28:48;;;;;;;26.23;10.83;;;;;;;0.16;79.57;101697.63;124510;1099;104175;-82
2023/02/15 05:31:20;;;;;;;28.23;10.60;;;;;;;0.17;80.05;101694.26;124377;1099;104419;-83
2023/02/15 05:33:52;;;;;;;30.90;10.73;;;;;;;0.16;79.55;101692.45;124233;1099;104220;-79
2023/02/15 05:36:23;;;;;;;29.77;11.53;;;;;;;0.19;79.90;101697.92;124238;1099;104245;-81
2023/02/15 05:38:54;;;;;;;29.47;11.97;;;;;;;0.23;80.59;101705.17;124422;1099;104166;-83
2023/02/15 05:41:26;;;;;;;25.13;11.03;;;;;;;0.24;80.31;101706.11;124558;1099;104214;-83
2023/02/15 05:43:58;;;;;;;31.10;12.10;;;;;;;0.24;80.09;101704.42;124064;1099;104393;-82
2023/02/15 05:46:30;;;;;;;28.17;11.93;;;;;;;0.27;80.31;101702.14;124584;1099;104195;-84
2023/02/15 05:49:01;;;;;;;27.53;11.87;;;;;;;0.32;80.04;101711.22;124528;1099;102069;-83
2023/02/15 05:51:32;;;;;;;26.10;9.90;;;;;;;0.33;79.82;101710.47;124697;1099;104273;-80
2023/02/15 05:54:04;;;;;;;25.87;10.93;;;;;;;0.38;80.25;101710.91;124360;1099;104252;-82
2023/02/15 05:56:36;;;;;;;23.43;11.00;;;;;;;0.41;79.86;101712.89;124631;1099;104687;-80
2023/02/15 05:59:07;;;;;;;26.00;10.35;;;;;;;0.42;80.40;101717.27;124425;1099;104322;-81
2023/02/15 06:01:40;;;;;;;25.97;10.70;;;;;;;0.44;80.13;101715.77;124113;1099;104278;-82
2023/02/15 06:04:13;;;;;;;27.17;11.43;;;;;;;0.46;80.15;101716.81;124381;1099;104357;-80
2023/02/15 06:06:44;;;;;;;25.73;10.27;;;;;;;0.51;80.69;101718.16;124230;1099;104172;-81
2023/02/15 06:09:18;;;;;;;32.17;12.73;;;;;;;0.58;80.84;101715.41;124302;1099;104476;-79
2023/02/15 06:11:49;;;;;;;34.93;13.63;;;;;;;0.67;80.35;101729.19;124218;1099;104616;-79
2023/02/15 06:14:20;;;;;;;32.10;13.37;;;;;;;0.75;80.43;101722.17;124289;1099;104233;-80
2023/02/15 06:16:56;;;;;;;27.97;12.73;;;;;;;0.85;80.35;101716.19;124652;1099;104271;-80
2023/02/15 06:19:27;;;;;;;27.10;10.67;;;;;;;0.93;80.73;101716.91;124765;1099;104306;-83
2023/02/15 06:22:00;;;;;;;26.87;12.57;;;;;;;1.00;80.35;101719.31;124811;1099;104303;-82
2023/02/15 06:24:31;;;;;;;25.15;11.40;;;;;;;1.07;80.49;101709.65;124777;1099;104255;-80
2023/02/15 06:27:03;;;;;;;23.80;10.63;;;;;;;1.15;80.61;101723.29;124775;1099;104232;-82
2023/02/15 06:29:36;;;;;;;25.37;11.30;;;;;;;1.23;80.61;101712.01;124797;1099;104207;-79
2023/02/15 06:32:09;;;;;;;27.67;10.60;;;;;;;1.33;80.01;101716.34;124851;1099;104271;-81
2023/02/15 06:34:40;;;;;;;24.63;10.47;;;;;;;1.42;80.23;101708.53;124663;1099;104219;-79
2023/02/15 06:37:11;;;;;;;23.80;10.97;;;;;;;1.51;80.13;101708.44;124898;1099;103386;-78
2023/02/15 06:39:46;;;;;;;24.30;10.37;;;;;;;1.59;80.37;101712.63;124400;1099;104209;-80
2023/02/15 06:42:18;;;;;;;25.27;10.47;;;;;;;1.66;79.84;101715.02;124846;1099;103379;-76
2023/02/15 06:44:50;;;;;;;25.43;11.00;;;;;;;1.72;80.13;101715.57;124781;1099;104273;-77
2023/02/15 06:47:21;;;;;;;22.50;10.53;;;;;;;1.82;79.91;101712.13;124976;1099;104297;-78
2023/02/15 06:49:57;;;;;;;27.23;11.53;;;;;;;1.93;79.74;101726.97;124946;1099;103156;-76
2023/02/15 06:52:29;;;;;;;24.90;10.10;;;;;;;2.01;79.81;101712.13;124968;1099;104249;-76
2023/02/15 06:55:03;;;;;;;26.03;10.20;;;;;;;2.09;78.94;101707.63;125273;1099;102842;-77
2023/02/15 06:57:35;;;;;;;26.40;10.37;;;;;;;2.14;78.92;101716.70;125204;1099;104236;-77
2023/02/15 07:00:08;;;;;;;21.67;9.47;;;;;;;2.22;79.46;101713.09;125368;1098;104278;-76
2023/02/15 07:02:40;;;;;;;23.07;8.38;;;;;;;2.26;78.98;101711.68;125241;1099;104329;-77
2023/02/15 07:05:12;;;;;;;20.50;7.90;;;;;;;2.32;78.56;101714.81;124913;1099;104229;-77
2023/02/15 07:07:46;;;;;;;32.27;10.47;;;;;;;2.37;78.04;101708.37;124977;1098;103427;-75
2023/02/15 07:10:22;;;;;;;21.57;7.90;;;;;;;2.44;77.24;101712.41;124802;1099;104165;-77
2023/02/15 07:12:55;;;;;;;24.67;9.47;;;;;;;2.48;77.06;101704.14;125034;1099;102728;-78
2023/02/15 07:15:27;;;;;;;22.40;7.40;;;;;;;2.56;77.35;101712.58;124857;1099;103679;-75
2023/02/15 07:18:01;;;;;;;19.00;7.95;;;;;;;2.63;77.40;101713.25;125427;1099;103120;-77
2023/02/15 07:20:35;;;;;;;19.20;7.53;;;;;;;2.67;75.95;101710.12;125390;1099;104187;-77
2023/02/15 07:23:08;;;;;;;18.37;7.60;;;;;;;2.70;76.59;101697.44;125341;1099;103918;-79
2023/02/15 07:25:40;;;;;;;20.10;7.90;;;;;;;2.73;75.86;101712.35;124910;1098;104220;-78
2023/02/15 07:28:11;;;;;;;20.80;9.10;;;;;;;2.78;76.14;101710.16;125000;1099;104268;-78
2023/02/15 07:30:44;;;;;;;19.80;8.33;;;;;;;2.81;76.05;101713.91;124728;1099;102203;-78
2023/02/15 07:33:27;;;;;;;18.07;6.57;;;;;;;2.86;75.31;101711.72;125066;1099;104204;-77
2023/02/15 07:36:01;;;;;;;22.07;6.93;;;;;;;2.87;74.12;101722.22;125184;1099;102502;-78
2023/02/15 07:38:39;;;;;;;17.43;6.80;;;;;;;2.83;74.36;101720.12;125235;1099;102931;-79
2023/02/15 07:41:12;;;;;;;18.97;6.40;;;;;;;2.88;74.26;101705.90;125051;1099;103009;-80
2023/02/15 07:43:48;;;;;;;17.57;6.60;;;;;;;2.94;74.88;101702.91;125004;1099;102720;-81
2023/02/15 07:46:20;;;;;;;19.60;7.13;;;;;;;2.93;73.11;101705.36;125351;1099;103150;-78
2023/02/15 07:48:54;;;;;;;19.10;7.20;;;;;;;2.99;73.23;101713.67;125326;1099;103153;-79
2023/02/15 07:51:28;;;;;;;15.13;6.90;;;;;;;3.04;72.80;101699.44;125061;1099;104287;-78
2023/02/15 07:54:00;;;;;;;15.60;6.50;;;;;;;3.11;73.58;101703.45;125123;1099;104345;-77
2023/02/15 07:56:32;;;;;;;19.10;6.30;;;;;;;3.16;72.52;101697.84;124884;1099;104248;-79
2023/02/15 07:59:08;;;;;;;15.65;5.70;;;;;;;3.18;71.38;101704.09;124890;1099;104368;-80
2023/02/15 08:01:40;;;;;;;15.50;6.50;;;;;;;3.24;73.95;101699.43;124715;1099;102478;-79
2023/02/15 08:04:12;;;;;;;17.13;6.63;;;;;;;3.36;72.42;101701.23;124865;1099;104162;-79
2023/02/15 08:06:46;;;;;;;15.77;6.67;;;;;;;3.49;73.15;101697.96;124747;1099;104236;-78
2023/02/15 08:09:28;;;;;;;13.90;6.67;;;;;;;3.55;71.68;101689.02;125121;1099;104172;-79
2023/02/15 08:12:09;;;;;;;15.00;6.03;;;;;;;3.61;72.49;101696.38;125268;1099;104235;-79
2023/02/15 08:14:58;;;;;;;16.13;6.67;;;;;;;3.76;73.07;101696.75;125988;1099;104146;-79
2023/02/15 08:17:30;;;;;;;15.30;6.53;;;;;;;3.81;70.91;101692.84;125280;1099;118000;-78
2023/02/15 08:20:05;;;;;;;18.87;6.50;;;;;;;3.83;71.72;101691.27;125236;1099;104012;-80
2023/02/15 08:22:34;;;;;;;;;;;;;;;3.86;69.62;101701.00;125040;1099;104166;-78
2023/02/15 08:25:09;;;;;;;15.50;5.10;;;;;;;3.94;70.16;101690.47;125446;1099;104245;-79
2023/02/15 08:27:41;;;;;;;11.10;5.00;;;;;;;4.05;70.83;101693.02;125157;1099;102906;-77
2023/02/15 08:30:15;;;;;;;14.90;5.60;;;;;;;4.12;69.82;101695.34;125294;1099;103226;-77
2023/02/15 08:32:47;;;;;;;15.43;6.03;;;;;;;4.24;69.61;101701.52;126579;1098;102662;-77
2023/02/15 08:35:21;;;;;;;13.20;5.13;;;;;;;4.18;66.87;101698.43;126626;1098;102251;-78
2023/02/15 08:37:53;;;;;;;13.60;5.30;;;;;;;4.25;68.13;101685.13;126720;1098;102648;-78
2023/02/15 08:40:27;;;;;;;13.00;4.97;;;;;;;4.34;68.20;101694.47;126131;1099;101956;-78
2023/02/15 08:43:04;;;;;;;15.23;5.30;;;;;;;4.38;67.74;101683.51;126095;1099;102342;-80
2023/02/15 08:45:41;;;;;;;14.87;5.28;;;;;;;4.37;68.32;101679.12;126081;1099;102135;-80
2023/02/15 08:48:16;;;;;;;14.43;4.63;;;;;;;4.30;63.84;101677.70;126808;1098;102004;-80
2023/02/15 08:50:50;;;;;;;8.27;3.77;;;;;;;4.30;62.85;101676.03;126919;1099;102767;-81
2023/02/15 08:53:24;;;;;;;13.63;4.40;;;;;;;4.47;65.67;101672.17;126940;1099;101972;-79
2023/02/15 08:55:59;;;;;;;11.43;4.22;;;;;;;4.61;66.86;101677.53;126835;1099;102019;-79
2023/02/15 08:58:38;;;;;;;11.77;4.57;;;;;;;4.67;66.74;101676.34;126535;1098;109773;-80
2023/02/15 09:01:14;;;;;;;12.10;4.67;;;;;;;4.69;66.08;101684.27;126773;1098;103400;-78
2023/02/15 09:03:47;;;;;;;12.70;5.00;;;;;;;4.73;65.97;101682.80;126092;1099;101878;-79
2023/02/15 09:06:20;;;;;;;14.45;4.60;;;;;;;4.88;63.42;101681.39;126502;1099;101859;-78
2023/02/15 09:08:53;;;;;;;8.43;3.93;;;;;;;4.96;64.62;101674.18;126234;1099;102007;-77
2023/02/15 09:11:28;;;;;;;11.23;3.50;;;;;;;4.93;62.98;101692.16;126876;1099;102588;-77
2023/02/15 09:14:02;;;;;;;10.93;3.50;;;;;;;4.90;64.36;101694.52;125416;1099;104139;-75
2023/02/15 09:16:36;;;;;;;11.47;3.90;;;;;;;4.87;64.87;101695.17;125185;1099;102685;-77
2023/02/15 09:19:19;;;;;;;8.80;3.42;;;;;;;4.92;63.83;101700.73;125100;1099;104353;-77
2023/02/15 09:21:58;;;;;;;9.13;3.83;;;;;;;4.91;63.18;101706.71;125141;1099;104408;-77
2023/02/15 09:24:34;;;;;;;6.60;3.20;;;;;;;4.88;61.61;101707.40;125147;1099;102134;-77
2023/02/15 09:27:06;;;;;;;7.50;3.13;;;;;;;4.85;61.14;101696.75;124849;1102;104376;-77
2023/02/15 09:29:38;;;;;;;5.97;3.03;;;;;;;4.82;61.13;101696.52;125247;1099;104290;-76
2023/02/15 09:32:14;;;;;;;9.30;3.40;;;;;;;4.84;58.85;101693.23;125441;1099;103977;-77
2023/02/15 09:34:48;;;;;;;9.50;2.77;;;;;;;4.80;57.49;101691.20;125625;1099;104274;-76
2023/02/15 09:37:27;;;;;;;8.63;2.70;;;;;;;4.78;60.31;101700.55;125442;1099;104271;-78
2023/02/15 09:40:00;;;;;;;9.47;3.30;;;;;;;4.72;59.16;101688.77;125238;1099;103405;-77
2023/02/15 09:43:08;;;;;;;9.80;3.17;;;;;;;4.76;58.26;101691.73;125124;1099;104225;-78
2023/02/15 09:45:50;;;;;;;8.40;2.90;;;;;;;4.85;60.00;101692.45;125238;1099;104169;-77
2023/02/15 09:48:46;;;;;;;12.80;2.80;;;;;;;4.85;57.44;101692.45;125042;1099;104397;-77
2023/02/15 09:52:06;;;;;;;;;;;;;;;;;;;;;
2023/02/15 09:55:18;;;;;;;7.13;2.87;;;;;;;4.92;53.93;101692.92;124783;1099;104213;-78
2023/02/15 09:58:24;;;;;;;7.50;2.60;;;;;;;4.88;55.58;101683.99;125180;1099;104249;-76
2023/02/15 10:01:19;;;;;;;6.67;2.87;;;;;;;4.88;54.56;101691.80;125323;1099;102176;-77
2023/02/15 10:04:22;;;;;;;9.60;3.23;;;;;;;4.84;55.82;101693.23;125124;1099;103316;-78
2023/02/15 10:07:11;;;;;;;8.13;2.97;;;;;;;4.85;57.30;101699.36;124850;1099;102890;-76
2023/02/15 10:10:20;;;;;;;8.97;2.97;;;;;;;4.81;56.77;101690.39;125076;1099;104178;-76
2023/02/15 10:13:34;;;;;;;;;;;;;;;4.84;55.73;101695.83;125291;1099;102091;-76
2023/02/15 10:16:24;;;;;;;6.93;3.13;;;;;;;5.04;56.60;101686.97;125165;1099;105624;-77
2023/02/15 10:19:14;;;;;;;7.60;3.37;;;;;;;5.21;55.62;101683.05;125343;1099;103694;-79
2023/02/15 10:25:41;;;;;;;8.40;2.90;;;;;;;5.33;55.03;101698.71;125814;1099;102524;-76
2023/02/15 10:28:56;;;;;;;9.13;3.37;;;;;;;5.26;54.73;101690.32;125860;1099;102186;-76
2023/02/15 10:32:23;;;;;;;6.77;3.47;;;;;;;5.26;56.31;101670.39;125983;1099;102050;-77
2023/02/15 10:35:23;;;;;;;7.93;3.17;;;;;;;5.49;55.31;101674.73;125248;1102;104290;-79
2023/02/15 10:38:45;;;;;;;9.77;3.83;;;;;;;5.52;56.30;101681.88;125363;1099;103581;-77
2023/02/15 10:41:48;;;;;;;11.03;3.77;;;;;;;5.47;54.90;101676.33;125990;1099;102004;-78
2023/02/15 10:44:42;;;;;;;7.33;3.40;;;;;;;5.47;54.58;101657.17;126029;1099;102383;-77
2023/02/15 10:47:39;;;;;;;12.60;3.30;;;;;;;5.46;54.03;101664.09;125413;1099;102468;-78
2023/02/15 10:50:18;;;;;;;;;;;;;;;5.61;51.79;101664.34;124976;1099;104445;-78
2023/02/15 10:53:18;;;;;;;27.50;4.60;;;;;;;5.68;54.28;101661.38;125391;1099;104162;-76
2023/02/15 10:55:57;;;;;;;5.53;3.10;;;;;;;5.69;54.77;101659.70;125374;1099;104223;-76
2023/02/15 10:58:45;;;;;;;9.23;3.07;;;;;;;5.62;54.16;101666.13;125490;1099;104166;-77
2023/02/15 11:01:27;;;;;;;10.53;3.10;;;;;;;5.64;53.71;101658.44;125269;1099;104256;-77
2023/02/15 11:04:21;;;;;;;12.83;4.37;;;;;;;5.82;55.25;101665.00;125523;1099;104156;-76
2023/02/15 11:06:58;;;;;;;6.93;3.20;;;;;;;5.84;53.56;101667.72;125024;1099;104162;-77
2023/02/15 11:09:44;;;;;;;10.07;3.17;;;;;;;5.73;52.72;101669.53;125177;1099;102360;-78
2023/02/15 11:12:20;;;;;;;8.23;3.02;;;;;;;5.60;52.65;101669.44;124968;1099;110424;-77
2023/02/15 11:14:59;;;;;;;7.07;3.00;;;;;;;5.52;52.04;101672.36;125342;1099;104380;-79
2023/02/15 11:17:40;;;;;;;8.33;3.20;;;;;;;5.66;53.14;101660.37;125337;1099;104012;-81
2023/02/15 11:20:23;;;;;;;5.60;2.77;;;;;;;5.82;52.26;101651.08;125225;1099;102172;-80
2023/02/15 11:22:56;;;;;;;7.70;3.23;;;;;;;5.91;53.24;101649.16;126219;1099;102911;-79
2023/02/15 11:25:45;;;;;;;;;;;;;;;;;;;;;
2023/02/15 11:28:23;;;;;;;9.93;3.10;;;;;;;5.90;51.98;101662.96;126128;1099;102461;-79
2023/02/15 11:30:59;;;;;;;6.83;2.67;;;;;;;5.83;50.84;101659.01;126456;1098;104076;-78
2023/02/15 11:33:39;;;;;;;10.50;3.07;;;;;;;5.74;51.05;101656.63;126551;1099;101975;-79
2023/02/15 11:36:19;;;;;;;12.60;3.43;;;;;;;5.81;52.17;101660.58;126117;1099;101959;-78
2023/02/15 11:39:04;;;;;;;8.90;3.27;;;;;;;5.91;51.64;101654.36;126682;1099;101862;-79
2023/02/15 11:41:46;;;;;;;9.43;3.20;;;;;;;5.89;51.94;101654.25;126576;1098;102187;-80
2023/02/15 11:44:27;;;;;;;10.87;3.47;;;;;;;5.89;51.26;101645.51;126665;1098;102012;-78
2023/02/15 11:47:02;;;;;;;9.27;3.50;;;;;;;5.88;51.42;101664.56;126706;1098;101563;-78
2023/02/15 11:49:37;;;;;;;8.40;3.10;;;;;;;5.85;51.75;101651.31;126606;1099;102873;-78
2023/02/15 11:52:18;;;;;;;12.60;3.40;;;;;;;5.73;50.59;101649.63;126072;1099;103771;-77
2023/02/15 11:54:53;;;;;;;8.90;3.23;;;;;;;5.62;50.65;101647.91;126468;1098;102732;-78
2023/02/15 11:57:40;;;;;;;11.53;3.10;;;;;;;5.48;49.94;101651.19;126145;1099;102597;-78
2023/02/15 12:00:16;;;;;;;;;;;;;;;5.35;49.32;101660.68;126619;1099;102351;-80
2023/02/15 12:02:53;;;;;;;8.37;3.30;;;;;;;5.30;50.15;101653.30;126588;1099;102306;-78
2023/02/15 12:05:27;;;;;;;14.63;3.57;;;;;;;5.29;51.67;101654.12;126632;1098;102225;-78
2023/02/15 12:08:15;;;;;;;9.20;3.37;;;;;;;5.32;50.27;101654.34;126103;1099;103107;-78
2023/02/15 12:10:59;;;;;;;22.70;5.47;;;;;;;5.35;50.46;101644.17;126672;1098;102589;-78
2023/02/15 12:13:33;;;;;;;5.63;3.07;;;;;;;5.30;50.99;101645.50;125111;1099;104338;-77
2023/02/15 12:16:12;;;;;;;11.40;3.57;;;;;;;5.32;51.54;101650.04;124799;1099;103012;-78
2023/02/15 12:18:48;;;;;;;14.67;3.43;;;;;;;5.41;51.67;101649.84;125050;1099;102519;-80
2023/02/15 12:21:34;;;;;;;12.37;3.23;;;;;;;5.52;51.83;101642.83;124878;1099;104181;-80
2023/02/15 12:24:24;;;;;;;5.17;2.80;;;;;;;5.48;50.93;101640.77;124941;1099;104428;-79